No.36 Oyarikimaru — JK5430 — position and weather

sailwx.info

Track history (hours):
 
Tides and Currents Weather Stations Pressure Air Temp Water Temp Dewpoint Dewpoint Depression Visibility Wind Speed Wind Dir Waves Ship Positions

No.36 Oyarikimaru

Last reported at 2018-Jul-16 04:21 UTC. Time now 2018-Jul-19 19:13 UTC.
Position N 34°59' E 139°29'.

Length 63 m.

Type: Cargo ship. MMSI: 431400544.

Date/timePositionNaut miles runAvg speedWind from/ knotsBaromVisibWave heightAir tempDewpointWater temp
2018-Jul-16 04:21N 34°59' E 139°29'3 7.7
2018-Jul-16 04:00N 35°00' E 139°31'5 8.6
2018-Jul-16 03:28N 35°03' E 139°36'510.3
2018-Jul-16 03:00N 35°06' E 139°41'611.4
2018-Jul-16 02:30N 35°10' E 139°45'611.1
2018-Jul-16 02:00N 35°16' E 139°46'611.6
2018-Jul-16 01:28N 35°21' E 139°42'5 0.4
2018-Jul-15 11:45N 35°25' E 139°47'312.4
2018-Jul-15 11:30N 35°22' E 139°45'511.0
2018-Jul-15 11:00N 35°16' E 139°46'812.6
2018-Jul-15 10:24N 35°09' E 139°46'613.6
2018-Jul-15 09:59N 35°04' E 139°44'13 0.3
2018-Jul-13 08:19N 34°58' E 139°30'3 8.8
2018-Jul-13 07:58N 35°00' E 139°33'5 9.9
2018-Jul-13 07:29N 35°03' E 139°37'511.0
2018-Jul-13 07:00N 35°07' E 139°42'611.0
2018-Jul-13 06:28N 35°12' E 139°46'4 9.4
2018-Jul-13 06:00N 35°16' E 139°45'610.4
2018-Jul-13 05:28N 35°21' E 139°42'2 4.2
2018-Jul-13 04:55N 35°22' E 139°39'0 0.0
2018-Jul-13 04:25N 35°22' E 139°39'0 0.0
2018-Jul-13 03:55N 35°22' E 139°39'0 0.0
2018-Jul-13 03:16N 35°22' E 139°39'0 0.0
2018-Jul-13 02:40N 35°22' E 139°39'0 0.0
2018-Jul-13 02:16N 35°22' E 139°39'0 0.0
2018-Jul-13 01:49N 35°22' E 139°39'0 0.0
2018-Jul-13 01:07N 35°22' E 139°39'0 0.0
2018-Jul-13 00:40N 35°22' E 139°39'0 0.0
2018-Jul-13 00:25N 35°22' E 139°39'0 0.0
2018-Jul-12 23:52N 35°22' E 139°39'0 0.0
2018-Jul-12 23:28N 35°22' E 139°39'1 0.8
2018-Jul-12 22:38N 35°22' E 139°40'0 0.0
2018-Jul-12 22:14N 35°22' E 139°40'0 0.0
2018-Jul-12 21:50N 35°22' E 139°40'0 0.0
2018-Jul-12 21:23N 35°22' E 139°40'0 0.0
2018-Jul-12 19:29N 35°22' E 139°40'0 0.0
2018-Jul-12 18:53N 35°22' E 139°40'0 0.1
2018-Jul-12 18:16N 35°22' E 139°40'0 0.1
2018-Jul-12 17:53N 35°22' E 139°40'410.1
2018-Jul-12 17:30N 35°19' E 139°43'611.9
2018-Jul-12 17:00N 35°14' E 139°47'611.8
2018-Jul-12 16:30N 35°08' E 139°45'611.2
2018-Jul-12 16:00N 35°03' E 139°41'8 0.2
2018-Jul-11 05:59N 34°60' E 139°33'4 8.7
2018-Jul-11 05:30N 35°03' E 139°37'610.5
2018-Jul-11 04:58N 35°06' E 139°42'510.5
2018-Jul-11 04:30N 35°10' E 139°45'5 9.8
2018-Jul-11 03:59N 35°15' E 139°46'6 9.3
2018-Jul-11 03:23N 35°20' E 139°42'3 6.9
2018-Jul-11 02:56N 35°22' E 139°39'0 0.1
2018-Jul-11 02:29N 35°22' E 139°39'0 0.0
2018-Jul-11 01:59N 35°22' E 139°39'0 0.0
2018-Jul-11 01:23N 35°22' E 139°39'0 0.0
2018-Jul-11 00:44N 35°22' E 139°39'0 0.0
2018-Jul-11 00:26N 35°22' E 139°39'0 0.0
2018-Jul-10 23:56N 35°22' E 139°39'0 0.0
2018-Jul-10 23:26N 35°22' E 139°39'0 0.0
2018-Jul-10 22:59N 35°22' E 139°39'0 0.1
2018-Jul-10 22:24N 35°22' E 139°39'1 3.3
2018-Jul-10 22:00N 35°21' E 139°40'4 0.3
2018-Jul-10 09:56N 35°17' E 139°41'0 0.0
2018-Jul-10 09:14N 35°17' E 139°41'0 0.0
2018-Jul-10 08:44N 35°17' E 139°41'0 0.0
2018-Jul-10 08:26N 35°17' E 139°41'0 0.0
2018-Jul-10 07:50N 35°17' E 139°41'0 0.0
2018-Jul-10 06:38N 35°17' E 139°41'0 0.0
2018-Jul-10 05:08N 35°17' E 139°41'0 0.0
2018-Jul-09 22:27N 35°17' E 139°41'3 4.2
2018-Jul-09 21:50N 35°20' E 139°41'0 0.1
2018-Jul-09 21:26N 35°20' E 139°41'0 0.0
2018-Jul-09 20:56N 35°20' E 139°41'0 0.0
2018-Jul-09 20:26N 35°20' E 139°41'0 0.1
2018-Jul-09 19:56N 35°20' E 139°41'0 0.1
2018-Jul-09 19:26N 35°20' E 139°41'0 0.0
2018-Jul-09 18:56N 35°20' E 139°41'0 0.0
2018-Jul-09 18:26N 35°20' E 139°41'0 0.0
2018-Jul-09 17:44N 35°20' E 139°41'0 0.0
2018-Jul-09 17:08N 35°20' E 139°41'0 0.0
2018-Jul-09 16:38N 35°20' E 139°41'0 0.0
2018-Jul-09 16:14N 35°20' E 139°41'0 0.0
2018-Jul-09 15:44N 35°20' E 139°41'0 0.0
2018-Jul-09 15:26N 35°20' E 139°41'0 0.0
2018-Jul-09 14:50N 35°20' E 139°41'0 0.0
2018-Jul-09 14:26N 35°20' E 139°41'0 0.0
2018-Jul-09 13:56N 35°20' E 139°41'0 0.0
2018-Jul-09 13:25N 35°20' E 139°41'1 3.0
2018-Jul-09 12:58N 35°20' E 139°42'612.0
2018-Jul-09 12:25N 35°15' E 139°47'512.0
2018-Jul-09 12:00N 35°10' E 139°45'611.6
2018-Jul-09 11:30N 35°05' E 139°41'238 9.7
2018-Jul-08 10:53N 34°01' E 135°03'512.0
2018-Jul-08 10:26N 34°06' E 135°04'512.0
2018-Jul-08 09:59N 34°11' E 135°05'4 7.5
2018-Jul-08 09:30N 34°14' E 135°08'0 0.6
2018-Jul-08 08:59N 34°14' E 135°08'0 0.0
2018-Jul-08 08:29N 34°14' E 135°08'0 0.0
2018-Jul-08 07:56N 34°14' E 135°08'0 0.0
2018-Jul-08 07:29N 34°14' E 135°08'0 0.0
2018-Jul-08 06:56N 34°14' E 135°08'0 0.0
2018-Jul-08 06:29N 34°14' E 135°08'0 0.0
2018-Jul-08 05:56N 34°14' E 135°08'0 0.0
2018-Jul-08 05:29N 34°14' E 135°08'0 0.0
2018-Jul-08 04:56N 34°14' E 135°08'0 0.0
2018-Jul-08 04:26N 34°14' E 135°08'0 0.0
2018-Jul-08 03:59N 34°14' E 135°08'0 0.0
2018-Jul-08 03:29N 34°14' E 135°08'0 0.0
2018-Jul-08 02:59N 34°14' E 135°08'0 0.0
2018-Jul-08 02:29N 34°14' E 135°08'0 0.0
2018-Jul-08 01:59N 34°14' E 135°08'0 0.0
2018-Jul-08 01:29N 34°14' E 135°08'0 0.0
2018-Jul-08 00:59N 34°14' E 135°08'0 0.0
2018-Jul-08 00:26N 34°14' E 135°08'0 0.0
2018-Jul-07 23:59N 34°14' E 135°08'0 0.1
2018-Jul-07 23:28N 34°14' E 135°08'2 2.9
2018-Jul-07 22:55N 34°15' E 135°06'0 0.0
2018-Jul-07 22:28N 34°15' E 135°06'0 0.0
2018-Jul-07 21:43N 34°15' E 135°06'0 0.0
2018-Jul-07 21:25N 34°15' E 135°06'0 0.1
2018-Jul-07 20:58N 34°15' E 135°06'0 0.1
2018-Jul-07 20:28N 34°15' E 135°06'0 0.0
2018-Jul-07 19:58N 34°15' E 135°06'0 0.0
2018-Jul-07 19:25N 34°15' E 135°06'0 0.0
2018-Jul-07 18:58N 34°15' E 135°06'0 0.0
2018-Jul-07 18:22N 34°15' E 135°06'0 0.0
2018-Jul-07 17:59N 34°15' E 135°06'0 0.0
2018-Jul-07 17:28N 34°15' E 135°06'0 0.0
2018-Jul-07 16:58N 34°15' E 135°06'0 0.0
2018-Jul-07 16:28N 34°15' E 135°06'0 0.0
2018-Jul-07 15:58N 34°15' E 135°06'0 0.0
2018-Jul-07 15:28N 34°15' E 135°06'0 0.0
2018-Jul-07 14:58N 34°15' E 135°06'0 0.0
2018-Jul-07 14:28N 34°15' E 135°06'0 0.0
2018-Jul-07 13:55N 34°15' E 135°06'0 0.0
2018-Jul-07 13:28N 34°15' E 135°06'0 0.1
2018-Jul-07 12:58N 34°15' E 135°06'0 0.0
2018-Jul-07 12:23N 34°15' E 135°06'0 0.1
2018-Jul-07 12:00N 34°15' E 135°06'5 9.1
2018-Jul-07 11:28N 34°10' E 135°04'511.2
2018-Jul-07 11:00N 34°05' E 135°01'510.7
2018-Jul-07 10:30N 34°01' E 134°58'3 0.1
2018-Jul-06 09:49N 34°01' E 134°55'610.4
2018-Jul-06 09:14N 34°07' E 134°56'310.4
2018-Jul-06 08:57N 34°10' E 134°57'610.4
2018-Jul-06 08:20N 34°16' E 134°58'3 9.6
2018-Jul-06 08:00N 34°19' E 134°59'5 9.7
2018-Jul-06 07:30N 34°24' E 135°02'510.6
2018-Jul-06 07:00N 34°27' E 135°07'910.0
2018-Jul-06 06:04N 34°33' E 135°16'112.2
2018-Jul-06 05:59N 34°34' E 135°17'612.7
2018-Jul-06 05:30N 34°38' E 135°23'  
Track history (hours):
 
Tides and Currents Weather Stations Pressure Air Temp Water Temp Dewpoint Dewpoint Depression Visibility Wind Speed Wind Dir Waves Ship Positions

No.36 Oyarikimaru

Last reported at 2018-Jul-16 04:21 UTC. Time now 2018-Jul-19 19:13 UTC.
Position N 34°59' E 139°29'.

Length 63 m.

Type: Cargo ship. MMSI: 431400544.

Date/timePositionNaut miles runAvg speedWind from/ knotsBaromVisibWave heightAir tempDewpointWater temp
2018-Jul-16 04:21N 34°59' E 139°29'3 7.7
2018-Jul-16 04:00N 35°00' E 139°31'5 8.6
2018-Jul-16 03:28N 35°03' E 139°36'510.3
2018-Jul-16 03:00N 35°06' E 139°41'611.4
2018-Jul-16 02:30N 35°10' E 139°45'611.1
2018-Jul-16 02:00N 35°16' E 139°46'611.6
2018-Jul-16 01:28N 35°21' E 139°42'5 0.4
2018-Jul-15 11:45N 35°25' E 139°47'312.4
2018-Jul-15 11:30N 35°22' E 139°45'511.0
2018-Jul-15 11:00N 35°16' E 139°46'812.6
2018-Jul-15 10:24N 35°09' E 139°46'613.6
2018-Jul-15 09:59N 35°04' E 139°44'13 0.3
2018-Jul-13 08:19N 34°58' E 139°30'3 8.8
2018-Jul-13 07:58N 35°00' E 139°33'5 9.9
2018-Jul-13 07:29N 35°03' E 139°37'511.0
2018-Jul-13 07:00N 35°07' E 139°42'611.0
2018-Jul-13 06:28N 35°12' E 139°46'4 9.4
2018-Jul-13 06:00N 35°16' E 139°45'610.4
2018-Jul-13 05:28N 35°21' E 139°42'2 4.2
2018-Jul-13 04:55N 35°22' E 139°39'0 0.0
2018-Jul-13 04:25N 35°22' E 139°39'0 0.0
2018-Jul-13 03:55N 35°22' E 139°39'0 0.0
2018-Jul-13 03:16N 35°22' E 139°39'0 0.0
2018-Jul-13 02:40N 35°22' E 139°39'0 0.0
2018-Jul-13 02:16N 35°22' E 139°39'0 0.0
2018-Jul-13 01:49N 35°22' E 139°39'0 0.0
2018-Jul-13 01:07N 35°22' E 139°39'0 0.0
2018-Jul-13 00:40N 35°22' E 139°39'0 0.0
2018-Jul-13 00:25N 35°22' E 139°39'0 0.0
2018-Jul-12 23:52N 35°22' E 139°39'0 0.0
2018-Jul-12 23:28N 35°22' E 139°39'1 0.8
2018-Jul-12 22:38N 35°22' E 139°40'0 0.0
2018-Jul-12 22:14N 35°22' E 139°40'0 0.0
2018-Jul-12 21:50N 35°22' E 139°40'0 0.0
2018-Jul-12 21:23N 35°22' E 139°40'0 0.0
2018-Jul-12 19:29N 35°22' E 139°40'0 0.0
2018-Jul-12 18:53N 35°22' E 139°40'0 0.1
2018-Jul-12 18:16N 35°22' E 139°40'0 0.1
2018-Jul-12 17:53N 35°22' E 139°40'410.1
2018-Jul-12 17:30N 35°19' E 139°43'611.9
2018-Jul-12 17:00N 35°14' E 139°47'611.8
2018-Jul-12 16:30N 35°08' E 139°45'611.2
2018-Jul-12 16:00N 35°03' E 139°41'8 0.2
2018-Jul-11 05:59N 34°60' E 139°33'4 8.7
2018-Jul-11 05:30N 35°03' E 139°37'610.5
2018-Jul-11 04:58N 35°06' E 139°42'510.5
2018-Jul-11 04:30N 35°10' E 139°45'5 9.8
2018-Jul-11 03:59N 35°15' E 139°46'6 9.3
2018-Jul-11 03:23N 35°20' E 139°42'3 6.9
2018-Jul-11 02:56N 35°22' E 139°39'0 0.1
2018-Jul-11 02:29N 35°22' E 139°39'0 0.0
2018-Jul-11 01:59N 35°22' E 139°39'0 0.0
2018-Jul-11 01:23N 35°22' E 139°39'0 0.0
2018-Jul-11 00:44N 35°22' E 139°39'0 0.0
2018-Jul-11 00:26N 35°22' E 139°39'0 0.0
2018-Jul-10 23:56N 35°22' E 139°39'0 0.0
2018-Jul-10 23:26N 35°22' E 139°39'0 0.0
2018-Jul-10 22:59N 35°22' E 139°39'0 0.1
2018-Jul-10 22:24N 35°22' E 139°39'1 3.3
2018-Jul-10 22:00N 35°21' E 139°40'4 0.3
2018-Jul-10 09:56N 35°17' E 139°41'0 0.0
2018-Jul-10 09:14N 35°17' E 139°41'0 0.0
2018-Jul-10 08:44N 35°17' E 139°41'0 0.0
2018-Jul-10 08:26N 35°17' E 139°41'0 0.0
2018-Jul-10 07:50N 35°17' E 139°41'0 0.0
2018-Jul-10 06:38N 35°17' E 139°41'0 0.0
2018-Jul-10 05:08N 35°17' E 139°41'0 0.0
2018-Jul-09 22:27N 35°17' E 139°41'3 4.2
2018-Jul-09 21:50N 35°20' E 139°41'0 0.1
2018-Jul-09 21:26N 35°20' E 139°41'0 0.0
2018-Jul-09 20:56N 35°20' E 139°41'0 0.0
2018-Jul-09 20:26N 35°20' E 139°41'0 0.1
2018-Jul-09 19:56N 35°20' E 139°41'0 0.1
2018-Jul-09 19:26N 35°20' E 139°41'0 0.0
2018-Jul-09 18:56N 35°20' E 139°41'0 0.0
2018-Jul-09 18:26N 35°20' E 139°41'0 0.0
2018-Jul-09 17:44N 35°20' E 139°41'0 0.0
2018-Jul-09 17:08N 35°20' E 139°41'0 0.0
2018-Jul-09 16:38N 35°20' E 139°41'0 0.0
2018-Jul-09 16:14N 35°20' E 139°41'0 0.0
2018-Jul-09 15:44N 35°20' E 139°41'0 0.0
2018-Jul-09 15:26N 35°20' E 139°41'0 0.0
2018-Jul-09 14:50N 35°20' E 139°41'0 0.0
2018-Jul-09 14:26N 35°20' E 139°41'0 0.0
2018-Jul-09 13:56N 35°20' E 139°41'0 0.0
2018-Jul-09 13:25N 35°20' E 139°41'1 3.0
2018-Jul-09 12:58N 35°20' E 139°42'612.0
2018-Jul-09 12:25N 35°15' E 139°47'512.0
2018-Jul-09 12:00N 35°10' E 139°45'611.6
2018-Jul-09 11:30N 35°05' E 139°41'238 9.7
2018-Jul-08 10:53N 34°01' E 135°03'512.0
2018-Jul-08 10:26N 34°06' E 135°04'512.0
2018-Jul-08 09:59N 34°11' E 135°05'4 7.5
2018-Jul-08 09:30N 34°14' E 135°08'0 0.6
2018-Jul-08 08:59N 34°14' E 135°08'0 0.0
2018-Jul-08 08:29N 34°14' E 135°08'0 0.0
2018-Jul-08 07:56N 34°14' E 135°08'0 0.0
2018-Jul-08 07:29N 34°14' E 135°08'0 0.0
2018-Jul-08 06:56N 34°14' E 135°08'0 0.0
2018-Jul-08 06:29N 34°14' E 135°08'0 0.0
2018-Jul-08 05:56N 34°14' E 135°08'0 0.0
2018-Jul-08 05:29N 34°14' E 135°08'0 0.0
2018-Jul-08 04:56N 34°14' E 135°08'0 0.0
2018-Jul-08 04:26N 34°14' E 135°08'0 0.0
2018-Jul-08 03:59N 34°14' E 135°08'0 0.0
2018-Jul-08 03:29N 34°14' E 135°08'0 0.0
2018-Jul-08 02:59N 34°14' E 135°08'0 0.0
2018-Jul-08 02:29N 34°14' E 135°08'0 0.0
2018-Jul-08 01:59N 34°14' E 135°08'0 0.0
2018-Jul-08 01:29N 34°14' E 135°08'0 0.0
2018-Jul-08 00:59N 34°14' E 135°08'0 0.0
2018-Jul-08 00:26N 34°14' E 135°08'0 0.0
2018-Jul-07 23:59N 34°14' E 135°08'0 0.1
2018-Jul-07 23:28N 34°14' E 135°08'2 2.9
2018-Jul-07 22:55N 34°15' E 135°06'0 0.0
2018-Jul-07 22:28N 34°15' E 135°06'0 0.0
2018-Jul-07 21:43N 34°15' E 135°06'0 0.0
2018-Jul-07 21:25N 34°15' E 135°06'0 0.1
2018-Jul-07 20:58N 34°15' E 135°06'0 0.1
2018-Jul-07 20:28N 34°15' E 135°06'0 0.0
2018-Jul-07 19:58N 34°15' E 135°06'0 0.0
2018-Jul-07 19:25N 34°15' E 135°06'0 0.0
2018-Jul-07 18:58N 34°15' E 135°06'0 0.0
2018-Jul-07 18:22N 34°15' E 135°06'0 0.0
2018-Jul-07 17:59N 34°15' E 135°06'0 0.0
2018-Jul-07 17:28N 34°15' E 135°06'0 0.0
2018-Jul-07 16:58N 34°15' E 135°06'0 0.0
2018-Jul-07 16:28N 34°15' E 135°06'0 0.0
2018-Jul-07 15:58N 34°15' E 135°06'0 0.0
2018-Jul-07 15:28N 34°15' E 135°06'0 0.0
2018-Jul-07 14:58N 34°15' E 135°06'0 0.0
2018-Jul-07 14:28N 34°15' E 135°06'0 0.0
2018-Jul-07 13:55N 34°15' E 135°06'0 0.0
2018-Jul-07 13:28N 34°15' E 135°06'0 0.1
2018-Jul-07 12:58N 34°15' E 135°06'0 0.0
2018-Jul-07 12:23N 34°15' E 135°06'0 0.1
2018-Jul-07 12:00N 34°15' E 135°06'5 9.1
2018-Jul-07 11:28N 34°10' E 135°04'511.2
2018-Jul-07 11:00N 34°05' E 135°01'510.7
2018-Jul-07 10:30N 34°01' E 134°58'3 0.1
2018-Jul-06 09:49N 34°01' E 134°55'610.4
2018-Jul-06 09:14N 34°07' E 134°56'310.4
2018-Jul-06 08:57N 34°10' E 134°57'610.4
2018-Jul-06 08:20N 34°16' E 134°58'3 9.6
2018-Jul-06 08:00N 34°19' E 134°59'5 9.7
2018-Jul-06 07:30N 34°24' E 135°02'510.6
2018-Jul-06 07:00N 34°27' E 135°07'910.0
2018-Jul-06 06:04N 34°33' E 135°16'112.2
2018-Jul-06 05:59N 34°34' E 135°17'612.7
2018-Jul-06 05:30N 34°38' E 135°23'  

Dump ship's entire track history